Time;durP1;ratioP1;P1;durP2;ratioP2;P2;SDS_P1;SDS_P2;PMS_P1;PMS_P2;Temp;Humidity;BMP_temperature;BMP_pressure;BME280_temperature;BME280_humidity;BME280_pressure;Samples;Min_cycle;Max_cycle;Signal;HPM_P1;HPM_P2
2021/01/09 00:01:41;;;;;;;15.43;7.22;;;1.70;99.90;;;;;;4861115;29;20033;-78
2021/01/09 00:04:08;;;;;;;13.80;7.47;;;1.70;99.90;;;;;;4865683;29;20073;-80
2021/01/09 00:06:39;;;;;;;20.15;8.88;;;1.80;99.90;;;;;;4874751;29;20021;-79
2021/01/09 00:09:05;;;;;;;15.75;8.45;;;1.80;99.90;;;;;;4873206;29;20562;-79
2021/01/09 00:11:32;;;;;;;16.40;7.93;;;1.70;99.90;;;;;;4861094;29;20030;-79
2021/01/09 00:13:59;;;;;;;12.40;7.13;;;1.70;99.90;;;;;;4866272;29;20072;-80
2021/01/09 00:16:25;;;;;;;18.88;7.80;;;1.70;99.90;;;;;;4862856;29;20029;-81
2021/01/09 00:18:52;;;;;;;14.73;7.13;;;1.70;99.90;;;;;;4871268;29;20471;-81
2021/01/09 00:21:18;;;;;;;11.82;6.65;;;1.70;99.90;;;;;;4872436;29;20025;-80
2021/01/09 00:23:44;;;;;;;17.42;7.38;;;1.70;99.90;;;;;;4874272;29;20123;-78
2021/01/09 00:26:10;;;;;;;13.23;7.15;;;1.70;99.90;;;;;;4888231;29;20557;-80
2021/01/09 00:28:36;;;;;;;12.10;6.57;;;1.70;99.90;;;;;;4879984;29;20403;-79
2021/01/09 00:31:02;;;;;;;14.50;7.57;;;1.70;99.90;;;;;;4870538;29;20034;-80
2021/01/09 00:33:36;;;;;;;20.63;7.43;;;1.70;99.90;;;;;;4867140;29;20025;-79
2021/01/09 00:36:02;;;;;;;13.90;7.07;;;1.70;99.90;;;;;;4864250;29;20117;-80
2021/01/09 00:38:28;;;;;;;19.35;8.27;;;1.70;99.90;;;;;;4863733;29;20037;-79
2021/01/09 00:40:53;;;;;;;17.27;8.10;;;1.70;99.90;;;;;;4879084;29;20033;-79
2021/01/09 00:43:19;;;;;;;13.32;7.20;;;1.70;99.90;;;;;;4870348;29;20034;-80
2021/01/09 00:45:45;;;;;;;17.13;8.23;;;1.70;99.90;;;;;;4881116;29;20494;-79
2021/01/09 00:48:13;;;;;;;13.10;7.45;;;1.70;99.90;;;;;;4868632;29;20053;-81
2021/01/09 00:50:39;;;;;;;;;;;1.70;99.90;;;;;;4872170;29;20037;-79
2021/01/09 00:53:23;;;;;;;15.68;7.55;;;1.70;99.90;;;;;;4882722;29;19912;-79
2021/01/09 00:55:58;;;;;;;16.38;7.38;;;1.70;99.90;;;;;;4868238;29;20101;-80
2021/01/09 00:58:24;;;;;;;22.45;8.90;;;1.70;99.90;;;;;;4857430;29;20026;-78
2021/01/09 01:00:54;;;;;;;14.00;8.18;;;1.60;99.90;;;;;;4881969;29;20029;-81
2021/01/09 01:03:20;;;;;;;14.20;7.70;;;1.60;99.90;;;;;;4881403;29;20033;-80
2021/01/09 01:05:46;;;;;;;13.45;7.38;;;1.60;99.90;;;;;;4871266;29;20040;-79
2021/01/09 01:08:16;;;;;;;12.57;7.30;;;1.60;99.90;;;;;;4869294;29;20048;-79
2021/01/09 01:10:42;;;;;;;12.35;6.72;;;1.60;99.90;;;;;;4883386;29;20185;-78
2021/01/09 01:13:08;;;;;;;22.50;7.70;;;1.60;99.90;;;;;;4880054;29;20045;-80
2021/01/09 01:15:36;;;;;;;14.35;7.45;;;1.50;99.90;;;;;;4873459;29;20070;-76
2021/01/09 01:18:23;;;;;;;;;;;;;;;;;;;;;
2021/01/09 01:20:50;;;;;;;12.13;6.78;;;1.60;99.90;;;;;;4882879;29;20033;-78
2021/01/09 01:23:28;;;;;;;;;;;;;;;;;;;;;
2021/01/09 01:26:05;;;;;;;;;;;;;;;;;;;;;
2021/01/09 01:28:33;;;;;;;14.80;7.90;;;1.50;99.90;;;;;;4869382;29;20022;-80
2021/01/09 01:31:21;;;;;;;16.48;7.60;;;1.50;99.90;;;;;;4876695;29;20055;-79
2021/01/09 01:33:47;;;;;;;;;;;1.50;99.90;;;;;;4880505;29;20029;-79
2021/01/09 01:36:13;;;;;;;14.05;6.32;;;1.60;99.90;;;;;;4863144;29;20373;-78
2021/01/09 01:38:38;;;;;;;16.08;7.38;;;1.50;99.90;;;;;;4865091;29;20067;-77
2021/01/09 01:41:08;;;;;;;17.33;7.90;;;1.50;99.90;;;;;;4881983;29;20401;-80
2021/01/09 01:43:35;;;;;;;13.18;7.65;;;1.50;99.90;;;;;;4872816;29;20451;-79
2021/01/09 01:46:04;;;;;;;18.83;7.70;;;1.50;99.90;;;;;;4875899;29;20534;-78
2021/01/09 01:48:31;;;;;;;12.60;6.93;;;1.40;99.90;;;;;;4863713;29;20100;-78
2021/01/09 01:50:57;;;;;;;15.93;8.13;;;1.40;99.90;;;;;;4871194;29;20036;-78
2021/01/09 01:53:23;;;;;;;23.35;9.85;;;1.40;99.90;;;;;;4862805;29;20399;-79
2021/01/09 01:55:50;;;;;;;17.67;7.90;;;1.40;99.90;;;;;;4867769;29;20026;-80
2021/01/09 01:58:16;;;;;;;16.90;8.05;;;1.40;99.90;;;;;;4869394;29;20116;-78
2021/01/09 02:00:49;;;;;;;15.40;7.85;;;1.50;99.90;;;;;;4879349;29;20052;-79
2021/01/09 02:03:19;;;;;;;16.10;7.53;;;1.60;99.90;;;;;;4866770;29;20532;-82
2021/01/09 02:06:11;;;;;;;;;;;;;;;;;;;;;
2021/01/09 02:09:05;;;;;;;16.10;7.38;;;1.60;99.90;;;;;;4870010;29;20104;-80
2021/01/09 02:11:52;;;;;;;13.95;7.13;;;1.60;99.90;;;;;;4848091;29;20026;-79
2021/01/09 02:14:43;;;;;;;13.38;6.93;;;1.70;99.90;;;;;;4845514;29;20391;-79
2021/01/09 02:17:13;;;;;;;17.48;8.13;;;1.70;99.90;;;;;;4867763;29;20466;-80
2021/01/09 02:19:41;;;;;;;15.63;7.40;;;1.70;99.90;;;;;;4874925;29;20018;-79
2021/01/09 02:22:14;;;;;;;15.27;6.68;;;1.70;99.90;;;;;;4885116;29;20037;-79
2021/01/09 02:24:41;;;;;;;15.65;7.65;;;1.70;99.90;;;;;;4865893;29;20086;-79
2021/01/09 02:27:07;;;;;;;16.90;7.82;;;1.70;99.90;;;;;;4875893;29;20025;-77
2021/01/09 02:29:36;;;;;;;12.20;6.85;;;1.70;99.90;;;;;;4875952;29;20025;-79
2021/01/09 02:32:04;;;;;;;12.18;7.00;;;1.70;99.90;;;;;;4872090;29;20029;-78
2021/01/09 02:34:44;;;;;;;20.75;7.25;;;1.70;99.90;;;;;;4863856;29;20037;-80
2021/01/09 02:37:10;;;;;;;14.38;6.97;;;1.70;99.90;;;;;;4873307;29;20062;-79
2021/01/09 02:39:37;;;;;;;11.63;7.20;;;1.70;99.90;;;;;;4864120;29;20478;-79
2021/01/09 02:42:03;;;;;;;14.63;7.53;;;1.60;99.90;;;;;;4863664;29;20037;-78
2021/01/09 02:44:30;;;;;;;15.52;6.50;;;1.60;99.90;;;;;;4881037;29;20104;-79
2021/01/09 02:46:56;;;;;;;10.55;5.85;;;1.60;99.90;;;;;;4878419;29;20053;-80
2021/01/09 02:49:22;;;;;;;16.50;7.53;;;1.50;99.90;;;;;;4867619;29;20025;-80
2021/01/09 02:51:48;;;;;;;15.25;7.40;;;1.50;99.90;;;;;;4862187;29;20034;-78
2021/01/09 02:54:14;;;;;;;20.73;8.45;;;1.50;99.90;;;;;;4861489;29;20037;-79
2021/01/09 02:56:40;;;;;;;14.95;7.50;;;1.40;99.90;;;;;;4861145;29;20045;-78
2021/01/09 02:59:06;;;;;;;15.43;7.13;;;1.40;99.90;;;;;;4863454;29;20116;-78
2021/01/09 03:01:34;;;;;;;12.57;7.05;;;1.40;99.90;;;;;;4872716;29;20037;-79
2021/01/09 03:04:09;;;;;;;15.55;7.93;;;1.40;99.90;;;;;;4880720;29;20385;-79
2021/01/09 03:06:50;;;;;;;;;;;;;;;;;;;;;
2021/01/09 03:09:26;;;;;;;;;;;;;;;;;;;;;
2021/01/09 03:12:12;;;;;;;;;;;;;;;;;;;;;
2021/01/09 03:14:49;;;;;;;13.77;6.72;;;1.30;99.90;;;;;;4868531;29;20438;-80
2021/01/09 03:17:34;;;;;;;18.95;7.05;;;1.30;99.90;;;;;;4861402;29;20037;-81
2021/01/09 03:20:11;;;;;;;11.63;7.20;;;1.20;99.90;;;;;;4862566;29;20029;-81
2021/01/09 03:22:40;;;;;;;13.60;7.27;;;1.30;99.90;;;;;;4868376;29;20116;-80
2021/01/09 03:25:39;;;;;;;;;;;;;;;;;;;;;
2021/01/09 03:27:57;;;;;;;16.42;6.95;;;1.30;99.90;;;;;;4880339;29;20085;-79
2021/01/09 03:30:36;;;;;;;;;;;;;;;;;;;;;
2021/01/09 03:33:02;;;;;;;12.05;6.65;;;1.30;99.90;;;;;;4864071;29;20040;-80
2021/01/09 03:35:38;;;;;;;;;;;;;;;;;;;;;
2021/01/09 03:38:04;;;;;;;13.07;6.70;;;1.20;99.90;;;;;;4866626;29;20093;-77
2021/01/09 03:40:30;;;;;;;10.93;6.55;;;1.20;99.90;;;;;;4860525;29;20120;-76
2021/01/09 03:42:55;;;;;;;15.27;7.03;;;1.20;99.90;;;;;;4873025;29;20037;-77
2021/01/09 03:45:21;;;;;;;12.30;6.60;;;1.20;99.90;;;;;;4860859;29;20036;-77
2021/01/09 03:47:48;;;;;;;14.38;7.53;;;1.20;99.90;;;;;;4872552;29;20053;-77
2021/01/09 03:50:14;;;;;;;14.05;7.10;;;1.20;99.90;;;;;;4873053;29;20073;-79
2021/01/09 03:52:39;;;;;;;13.80;6.72;;;1.20;99.90;;;;;;4881968;29;20032;-79
2021/01/09 03:55:06;;;;;;;14.38;6.53;;;1.20;99.90;;;;;;4867670;29;20029;-80
2021/01/09 03:57:32;;;;;;;12.80;6.72;;;1.20;99.90;;;;;;4877983;29;20044;-80
2021/01/09 03:59:57;;;;;;;13.68;6.95;;;1.20;99.90;;;;;;4866813;29;20030;-79
2021/01/09 04:02:24;;;;;;;13.20;6.65;;;1.10;99.90;;;;;;4864592;29;20034;-78
2021/01/09 04:04:50;;;;;;;13.23;6.43;;;1.10;99.90;;;;;;4872093;29;20036;-79
2021/01/09 04:07:20;;;;;;;9.93;5.68;;;1.00;99.90;;;;;;4869452;29;20033;-80
2021/01/09 04:09:46;;;;;;;14.70;6.63;;;1.00;99.90;;;;;;4864910;29;20030;-80
2021/01/09 04:12:11;;;;;;;13.77;6.90;;;1.00;99.90;;;;;;4862887;29;20132;-79
2021/01/09 04:14:38;;;;;;;11.35;6.22;;;1.00;99.90;;;;;;4860612;29;20065;-80
2021/01/09 04:17:04;;;;;;;17.67;6.57;;;1.00;99.90;;;;;;4862589;29;20029;-81
2021/01/09 04:19:30;;;;;;;12.90;6.70;;;0.90;99.90;;;;;;4868178;29;20066;-80
2021/01/09 04:21:58;;;;;;;12.45;6.72;;;0.90;99.90;;;;;;4863953;29;20158;-81
2021/01/09 04:24:24;;;;;;;;;;;0.90;99.90;;;;;;4862122;29;20088;-82
2021/01/09 04:26:59;;;;;;;13.05;6.35;;;0.90;99.90;;;;;;4863345;29;20010;-80
2021/01/09 04:29:28;;;;;;;17.65;7.45;;;0.90;99.90;;;;;;4867250;29;20030;-77
2021/01/09 04:32:10;;;;;;;13.25;6.15;;;0.90;99.90;;;;;;4859304;29;20038;-79
2021/01/09 04:34:48;;;;;;;;;;;;;;;;;;;;;
2021/01/09 04:37:42;;;;;;;;;;;;;;;;;;;;;
2021/01/09 04:40:23;;;;;;;12.70;6.43;;;1.00;99.90;;;;;;4867041;29;20093;-82
2021/01/09 04:42:52;;;;;;;12.05;6.60;;;0.90;99.90;;;;;;4866431;29;20064;-82
2021/01/09 04:45:18;;;;;;;;;;;1.00;99.90;;;;;;4868502;29;20053;-81
2021/01/09 04:47:48;;;;;;;15.50;6.43;;;0.90;99.90;;;;;;4880118;29;20038;-80
2021/01/09 04:50:15;;;;;;;13.23;7.07;;;0.90;99.90;;;;;;4871878;29;20037;-80
2021/01/09 04:52:42;;;;;;;9.23;4.93;;;0.90;99.90;;;;;;4862260;29;20112;-78
2021/01/09 04:55:14;;;;;;;10.80;6.40;;;0.90;99.90;;;;;;4880928;29;20029;-77
2021/01/09 04:57:40;;;;;;;12.20;6.40;;;0.90;99.90;;;;;;4883860;29;20041;-78
2021/01/09 05:00:10;;;;;;;10.02;6.13;;;0.90;99.90;;;;;;4887200;29;20085;-79
2021/01/09 05:02:37;;;;;;;12.07;7.30;;;0.90;99.90;;;;;;4880554;29;20022;-78
2021/01/09 05:05:14;;;;;;;;;;;;;;;;;;;;;
2021/01/09 05:07:45;;;;;;;9.63;6.22;;;0.80;99.90;;;;;;4881616;29;20041;-79
2021/01/09 05:10:14;;;;;;;12.63;5.78;;;0.80;99.90;;;;;;4876125;29;20022;-79
2021/01/09 05:12:43;;;;;;;10.60;6.85;;;0.80;99.90;;;;;;4874682;29;20074;-79
2021/01/09 05:15:17;;;;;;;12.52;6.25;;;0.80;99.90;;;;;;4882191;29;20037;-79
2021/01/09 05:17:43;;;;;;;12.27;6.22;;;0.80;99.90;;;;;;4882505;29;20037;-80
2021/01/09 05:20:13;;;;;;;11.07;6.13;;;0.80;99.90;;;;;;4886022;29;20037;-78
2021/01/09 05:22:40;;;;;;;11.15;5.75;;;0.70;99.90;;;;;;4874607;29;20478;-78
2021/01/09 05:25:11;;;;;;;12.93;6.80;;;0.70;99.90;;;;;;4879923;29;20029;-79
2021/01/09 05:27:37;;;;;;;14.25;6.15;;;0.60;99.90;;;;;;4879327;29;20030;-79
2021/01/09 05:30:04;;;;;;;17.58;6.65;;;0.60;99.90;;;;;;4881715;29;20022;-79
2021/01/09 05:32:32;;;;;;;12.13;6.35;;;0.70;99.90;;;;;;4881454;29;20026;-78
2021/01/09 05:35:01;;;;;;;11.88;6.00;;;0.80;99.90;;;;;;4881173;29;20037;-78
2021/01/09 05:37:33;;;;;;;12.20;6.25;;;0.80;99.90;;;;;;4886384;29;20025;-78
2021/01/09 05:40:03;;;;;;;13.98;6.70;;;0.80;99.90;;;;;;4893127;29;20034;-78
2021/01/09 05:42:32;;;;;;;10.55;5.78;;;0.80;99.90;;;;;;4891518;29;20029;-79
2021/01/09 05:44:58;;;;;;;;;;;0.90;99.90;;;;;;4888337;29;20045;-79
2021/01/09 05:47:27;;;;;;;12.85;6.07;;;0.80;99.90;;;;;;4884276;29;20111;-79
2021/01/09 05:49:58;;;;;;;15.30;6.72;;;0.80;99.90;;;;;;4895392;29;20109;-79
2021/01/09 05:52:26;;;;;;;;;;;0.70;99.90;;;;;;4883362;29;20105;-79
2021/01/09 05:54:58;;;;;;;11.18;6.03;;;0.70;99.90;;;;;;4882427;29;19944;-78
2021/01/09 05:57:29;;;;;;;11.60;6.22;;;0.70;99.90;;;;;;4892067;29;20045;-78
2021/01/09 06:00:12;;;;;;;10.82;5.25;;;0.70;99.90;;;;;;4881129;29;20026;-78
2021/01/09 06:02:59;;;;;;;15.38;6.13;;;0.70;99.90;;;;;;4879855;29;20460;-78
2021/01/09 06:05:39;;;;;;;13.00;6.45;;;0.70;99.90;;;;;;4882113;29;20134;-79
2021/01/09 06:08:12;;;;;;;11.48;6.32;;;0.70;99.90;;;;;;4887780;29;20046;-79
2021/01/09 06:10:40;;;;;;;11.07;6.10;;;0.60;99.90;;;;;;4882583;29;20092;-79
2021/01/09 06:13:16;;;;;;;9.20;4.28;;;0.60;99.90;;;;;;4882294;29;20029;-79
2021/01/09 06:15:44;;;;;;;14.05;6.10;;;0.60;99.90;;;;;;4881771;29;20061;-78
2021/01/09 06:18:11;;;;;;;10.52;5.68;;;0.60;99.90;;;;;;4886683;29;20029;-79
2021/01/09 06:20:37;;;;;;;14.25;6.60;;;0.60;99.90;;;;;;4891062;29;20398;-78
2021/01/09 06:23:04;;;;;;;10.75;6.43;;;0.60;99.90;;;;;;4891727;29;20053;-79
2021/01/09 06:25:35;;;;;;;10.02;4.82;;;0.60;99.90;;;;;;4881930;29;20030;-78
2021/01/09 06:28:05;;;;;;;11.70;5.93;;;0.60;99.90;;;;;;4881734;29;20033;-78
2021/01/09 06:30:34;;;;;;;12.02;5.78;;;0.60;99.90;;;;;;4881322;29;20040;-79
2021/01/09 06:33:05;;;;;;;13.43;6.65;;;0.60;99.90;;;;;;4895910;29;20037;-79
2021/01/09 06:35:44;;;;;;;13.02;6.70;;;0.60;99.90;;;;;;4886345;29;20018;-79
2021/01/09 06:38:10;;;;;;;11.50;5.93;;;0.70;99.90;;;;;;4887392;29;20033;-79
2021/01/09 06:40:37;;;;;;;12.38;5.85;;;0.70;99.90;;;;;;4880342;29;20113;-79
2021/01/09 06:43:03;;;;;;;10.73;5.25;;;0.70;99.90;;;;;;4893037;29;20029;-78
2021/01/09 06:45:33;;;;;;;7.78;4.82;;;0.80;99.90;;;;;;4879758;29;20029;-79
2021/01/09 06:48:01;;;;;;;11.23;5.18;;;0.80;99.90;;;;;;4879419;29;20049;-80
2021/01/09 06:50:27;;;;;;;9.98;5.20;;;0.80;99.90;;;;;;4881904;29;20041;-79
2021/01/09 06:53:01;;;;;;;11.40;5.80;;;0.90;99.90;;;;;;4881279;29;20010;-79
2021/01/09 06:55:37;;;;;;;13.20;6.18;;;0.90;99.90;;;;;;4894606;29;20029;-79
2021/01/09 06:58:10;;;;;;;11.18;5.43;;;0.90;99.90;;;;;;4888667;29;20121;-79
2021/01/09 07:00:47;;;;;;;10.55;4.95;;;0.80;99.90;;;;;;4875066;29;20112;-78
2021/01/09 07:03:23;;;;;;;11.07;5.22;;;0.90;99.90;;;;;;4871265;29;20124;-79
2021/01/09 07:05:54;;;;;;;10.82;4.88;;;0.80;99.90;;;;;;4876302;29;20056;-78
2021/01/09 07:08:24;;;;;;;9.27;5.28;;;0.80;99.90;;;;;;4873481;29;20096;-79
2021/01/09 07:11:03;;;;;;;12.20;5.07;;;0.80;99.90;;;;;;4875018;29;20057;-78
2021/01/09 07:13:34;;;;;;;8.55;5.43;;;0.80;99.90;;;;;;4892652;29;20040;-78
2021/01/09 07:16:10;;;;;;;12.68;5.15;;;0.80;99.90;;;;;;4882758;29;20036;-79
2021/01/09 07:18:42;;;;;;;9.63;4.60;;;0.80;99.90;;;;;;4883333;29;20061;-80
2021/01/09 07:21:10;;;;;;;11.90;5.70;;;0.80;99.90;;;;;;4873469;29;20037;-79
2021/01/09 07:23:43;;;;;;;7.60;4.85;;;0.80;99.90;;;;;;4883555;29;20038;-79
2021/01/09 07:26:14;;;;;;;9.07;4.28;;;0.80;99.90;;;;;;4878785;29;20102;-79
2021/01/09 07:28:44;;;;;;;14.45;5.82;;;0.80;99.90;;;;;;4880987;29;20049;-79
2021/01/09 07:31:20;;;;;;;10.80;4.25;;;0.90;99.90;;;;;;4880879;29;20025;-80
2021/01/09 07:34:07;;;;;;;;;;;;;;;;;;;;;
2021/01/09 07:36:49;;;;;;;;;;;;;;;;;;;;;
2021/01/09 07:39:22;;;;;;;12.63;5.50;;;0.90;99.90;;;;;;4879824;29;20053;-77
2021/01/09 07:42:01;;;;;;;9.90;4.45;;;1.00;99.90;;;;;;4875645;29;20045;-78
2021/01/09 07:44:31;;;;;;;16.00;4.95;;;1.00;99.90;;;;;;4879446;29;20112;-78
2021/01/09 07:47:05;;;;;;;8.90;4.55;;;1.00;99.90;;;;;;4876007;29;20029;-79
2021/01/09 07:50:00;;;;;;;8.55;4.80;;;1.00;99.90;;;;;;4873025;29;20102;-78
2021/01/09 07:52:35;;;;;;;9.20;4.70;;;1.00;99.90;;;;;;4891910;29;20085;-78
2021/01/09 07:55:22;;;;;;;7.22;4.40;;;1.00;99.90;;;;;;4886136;29;20096;-78
2021/01/09 07:58:08;;;;;;;6.32;3.45;;;0.90;99.90;;;;;;4880488;29;20053;-77
2021/01/09 08:00:38;;;;;;;7.03;3.83;;;1.00;99.90;;;;;;4883247;29;20093;-79
2021/01/09 08:03:04;;;;;;;13.23;4.90;;;1.10;99.90;;;;;;4878920;29;20186;-78
2021/01/09 08:05:32;;;;;;;11.98;4.97;;;1.10;99.90;;;;;;4883577;29;20021;-78
2021/01/09 08:07:59;;;;;;;16.15;5.10;;;1.20;99.90;;;;;;4876522;29;20029;-78
2021/01/09 08:10:32;;;;;;;11.77;4.63;;;1.20;99.90;;;;;;4874875;29;20022;-77
2021/01/09 08:13:31;;;;;;;6.22;4.05;;;1.30;99.90;;;;;;4876081;29;20057;-78
2021/01/09 08:16:00;;;;;;;6.35;4.15;;;1.40;99.90;;;;;;4876299;29;20045;-79
2021/01/09 08:18:39;;;;;;;12.30;4.30;;;1.50;99.90;;;;;;4876062;29;20375;-79
2021/01/09 08:21:15;;;;;;;;;;;;;;;;;;;;;
2021/01/09 08:24:12;;;;;;;6.78;4.32;;;1.60;99.90;;;;;;4886730;29;20049;-79
2021/01/09 08:26:50;;;;;;;12.97;4.80;;;1.70;99.90;;;;;;4866112;29;20095;-80
2021/01/09 08:29:25;;;;;;;14.98;5.35;;;1.80;99.90;;;;;;4895812;29;20270;-79
2021/01/09 08:32:03;;;;;;;;;;;;;;;;;;;;;
2021/01/09 08:34:40;;;;;;;8.02;4.10;;;2.20;99.90;;;;;;4879226;29;20045;-79
2021/01/09 08:37:06;;;;;;;10.55;4.55;;;2.20;99.90;;;;;;4874196;29;20069;-79
2021/01/09 08:39:37;;;;;;;7.50;4.43;;;2.30;99.90;;;;;;4869223;29;20048;-80
2021/01/09 08:42:03;;;;;;;11.00;5.05;;;2.40;99.90;;;;;;4867143;29;20058;-79
2021/01/09 08:44:29;;;;;;;6.90;4.70;;;2.40;99.90;;;;;;4867707;29;20045;-78
2021/01/09 08:46:57;;;;;;;12.25;5.30;;;2.50;99.90;;;;;;4869112;29;20383;-79
2021/01/09 08:49:35;;;;;;;8.48;4.78;;;2.60;99.90;;;;;;4868450;29;20050;-80
2021/01/09 08:52:11;;;;;;;12.85;4.80;;;2.70;99.90;;;;;;4873813;29;20021;-79
2021/01/09 08:54:47;;;;;;;10.35;4.90;;;2.80;99.90;;;;;;4876947;29;20026;-79
2021/01/09 08:57:15;;;;;;;9.02;4.15;;;2.80;99.90;;;;;;4866501;29;20307;-81
2021/01/09 08:59:42;;;;;;;8.27;3.88;;;2.90;99.90;;;;;;4865924;29;20414;-80
2021/01/09 09:02:11;;;;;;;11.17;4.37;;;3.00;99.90;;;;;;4865709;29;20113;-79
2021/01/09 09:04:45;;;;;;;8.02;3.78;;;3.10;99.90;;;;;;4879482;29;20033;-80
2021/01/09 09:07:14;;;;;;;5.70;4.20;;;3.20;99.90;;;;;;4866451;29;20100;-80
2021/01/09 09:09:41;;;;;;;6.97;3.80;;;3.20;99.90;;;;;;4865704;29;20038;-80
2021/01/09 09:12:10;;;;;;;5.63;3.72;;;3.30;99.90;;;;;;4863564;29;20028;-78
2021/01/09 09:14:37;;;;;;;10.98;4.18;;;3.40;99.90;;;;;;4863256;29;20037;-76
2021/01/09 09:17:04;;;;;;;13.50;4.03;;;3.50;99.90;;;;;;4862759;29;20112;-76
2021/01/09 09:19:38;;;;;;;15.05;3.92;;;3.60;99.90;;;;;;4863481;29;20036;-79
2021/01/09 09:22:06;;;;;;;7.63;4.05;;;3.60;99.90;;;;;;4867068;29;20130;-81
2021/01/09 09:25:03;;;;;;;8.40;3.65;;;3.60;99.90;;;;;;4873172;29;20037;-81
2021/01/09 09:27:32;;;;;;;10.55;3.97;;;3.60;99.90;;;;;;4871069;29;20502;-78
2021/01/09 09:30:10;;;;;;;10.88;3.90;;;3.70;99.90;;;;;;4867755;29;20029;-77
2021/01/09 09:32:36;;;;;;;;;;;3.70;99.90;;;;;;4881333;29;20037;-79
2021/01/09 09:35:25;;;;;;;11.60;3.92;;;3.70;99.90;;;;;;4879242;29;19912;-78
2021/01/09 09:37:55;;;;;;;8.60;3.20;;;3.70;99.90;;;;;;4870839;29;20029;-83
2021/01/09 09:40:32;;;;;;;12.65;3.00;;;3.70;99.90;;;;;;4885272;29;20085;-81
2021/01/09 09:43:15;;;;;;;7.68;3.28;;;3.60;99.90;;;;;;4847159;29;20042;-82
2021/01/09 09:46:07;;;;;;;8.88;3.50;;;3.60;99.90;;;;;;4849479;29;20470;-78
2021/01/09 09:48:40;;;;;;;5.72;3.65;;;3.60;99.90;;;;;;4850837;29;20065;-80
2021/01/09 09:51:13;;;;;;;8.13;2.88;;;3.50;99.90;;;;;;4833336;29;20082;-81
2021/01/09 09:53:56;;;;;;;8.38;3.28;;;3.50;99.90;;;;;;4819686;29;20117;-82
2021/01/09 09:56:23;;;;;;;8.55;2.83;;;3.50;99.90;;;;;;4849957;29;20124;-80
2021/01/09 09:59:06;;;;;;;7.72;3.97;;;3.50;99.90;;;;;;4865919;29;20032;-82
2021/01/09 10:01:32;;;;;;;12.38;3.83;;;3.50;99.90;;;;;;4865244;29;20376;-78
2021/01/09 10:04:00;;;;;;;5.63;3.35;;;3.50;99.90;;;;;;4864385;29;20052;-80
2021/01/09 10:06:40;;;;;;;10.13;3.72;;;3.50;99.90;;;;;;4859514;29;20139;-78
2021/01/09 10:09:20;;;;;;;6.15;3.97;;;3.50;99.90;;;;;;4867846;29;20438;-79
2021/01/09 10:11:47;;;;;;;13.48;4.53;;;3.60;99.90;;;;;;4868364;29;20032;-82
2021/01/09 10:14:14;;;;;;;12.75;4.10;;;3.70;99.90;;;;;;4877141;29;20034;-80
2021/01/09 10:16:40;;;;;;;12.20;3.97;;;3.80;99.90;;;;;;4846156;29;20463;-80
2021/01/09 10:19:13;;;;;;;7.75;3.25;;;3.80;99.90;;;;;;4851084;29;20033;-82
2021/01/09 10:21:39;;;;;;;5.00;3.28;;;3.80;99.90;;;;;;4855575;29;20063;-79
2021/01/09 10:24:07;;;;;;;7.07;3.80;;;3.90;99.90;;;;;;4862150;29;20104;-81
2021/01/09 10:26:48;;;;;;;;;;;;;;;;;;;;;
2021/01/09 10:29:17;;;;;;;6.60;3.65;;;4.00;99.90;;;;;;4887046;29;20101;-81
2021/01/09 10:31:44;;;;;;;10.15;4.22;;;4.10;99.90;;;;;;4850503;29;20057;-83
2021/01/09 10:34:10;;;;;;;7.18;3.47;;;4.20;99.90;;;;;;4838733;29;20036;-82
2021/01/09 10:36:49;;;;;;;;;;;;;;;;;;;;;
2021/01/09 10:39:43;;;;;;;5.57;3.47;;;4.30;99.90;;;;;;4869890;29;20105;-79
2021/01/09 10:42:19;;;;;;;5.68;2.70;;;4.40;99.90;;;;;;4865756;29;20064;-80
2021/01/09 10:44:49;;;;;;;7.90;3.35;;;4.40;99.90;;;;;;4852340;29;20029;-80
2021/01/09 10:47:18;;;;;;;9.02;3.65;;;4.40;99.90;;;;;;4882604;29;20469;-80
2021/01/09 10:49:46;;;;;;;6.10;2.95;;;4.40;99.90;;;;;;4867915;29;20037;-79
2021/01/09 10:52:20;;;;;;;16.42;3.95;;;4.50;99.90;;;;;;4862943;29;20057;-80
2021/01/09 10:54:45;;;;;;;10.80;3.30;;;4.50;99.90;;;;;;4869578;29;20034;-81
2021/01/09 10:57:11;;;;;;;11.60;3.15;;;4.60;99.90;;;;;;4851179;29;20032;-82
2021/01/09 10:59:41;;;;;;;9.95;3.63;;;4.60;99.90;;;;;;4855025;29;20034;-82
2021/01/09 11:02:37;;;;;;;7.72;3.15;;;4.60;99.90;;;;;;4849625;29;20483;-80
2021/01/09 11:05:08;;;;;;;16.10;3.28;;;4.70;99.90;;;;;;4847440;29;20025;-83
2021/01/09 11:07:34;;;;;;;8.07;3.28;;;4.80;99.90;;;;;;4854595;29;20168;-80
2021/01/09 11:10:00;;;;;;;8.55;3.38;;;4.80;99.90;;;;;;4873892;29;20061;-80
2021/01/09 11:15:43;;;;;;;14.70;3.38;;;5.00;99.90;;;;;;4857461;29;20466;-81
2021/01/09 11:21:34;;;;;;;7.97;3.17;;;5.20;99.90;;;;;;4823893;29;20067;-82
2021/01/09 11:24:02;;;;;;;4.72;3.20;;;5.30;99.90;;;;;;4835577;29;20034;-81
2021/01/09 11:26:44;;;;;;;7.43;3.25;;;5.40;99.90;;;;;;4824517;29;20042;-82
2021/01/09 11:29:12;;;;;;;7.32;2.97;;;5.50;99.90;;;;;;4829155;29;20040;-81
2021/01/09 11:31:53;;;;;;;8.50;2.58;;;5.60;99.90;;;;;;4826082;29;20061;-80
2021/01/09 11:34:31;;;;;;;5.85;2.47;;;5.50;99.90;;;;;;4813709;29;20035;-84
2021/01/09 11:37:24;;;;;;;11.75;4.47;;;5.60;99.90;;;;;;4829990;29;20051;-83
2021/01/09 11:39:54;;;;;;;8.23;2.38;;;5.70;99.90;;;;;;4870499;29;20098;-80
2021/01/09 11:46:37;;;;;;;;;;;;;;;;;;;;;
2021/01/09 11:49:39;;;;;;;;;;;;;;;;;;;;;
2021/01/09 11:52:15;;;;;;;;;;;;;;;;;;;;;
2021/01/09 11:54:44;;;;;;;4.78;2.00;;;5.90;99.90;;;;;;4844430;29;20483;-80
2021/01/09 11:57:18;;;;;;;12.45;1.98;;;5.90;99.90;;;;;;4850082;29;20018;-79
2021/01/09 12:00:01;;;;;;;;;;;;;;;;;;;;;
2021/01/09 12:03:20;;;;;;;;;;;;;;;;;;;;;
2021/01/09 12:06:25;;;;;;;;;;;;;;;;;;;;;
2021/01/09 12:09:08;;;;;;;8.32;1.80;;;6.30;99.90;;;;;;4871548;29;20022;-81
2021/01/09 12:15:17;;;;;;;;;;;;;;;;;;;;;
2021/01/09 12:27:51;;;;;;;8.55;2.00;;;6.10;99.90;;;;;;4864925;29;20066;-81
2021/01/09 12:30:38;;;;;;;17.45;2.33;;;6.00;99.90;;;;;;4845475;29;20026;-82
2021/01/09 12:33:18;;;;;;;;;;;;;;;;;;;;;
2021/01/09 12:36:11;;;;;;;9.48;2.35;;;5.90;99.90;;;;;;4865872;29;20037;-82
2021/01/09 12:39:10;;;;;;;;;;;;;;;;;;;;;
2021/01/09 12:41:53;;;;;;;;;;;;;;;;;;;;;
2021/01/09 12:48:05;;;;;;;;;;;;;;;;;;;;;
2021/01/09 12:51:20;;;;;;;;;;;;;;;;;;;;;
2021/01/09 12:53:44;;;;;;;8.88;1.95;;;6.20;99.90;;;;;;4809197;29;20042;-81
2021/01/09 12:59:28;;;;;;;4.20;1.88;;;6.30;99.90;;;;;;4837751;29;20030;-83
2021/01/09 13:02:46;;;;;;;;;;;;;;;;;;;;;
2021/01/09 13:05:49;;;;;;;;;;;;;;;;;;;;;
2021/01/09 13:08:54;;;;;;;;;;;;;;;;;;;;;
2021/01/09 13:12:01;;;;;;;;;;;;;;;;;;;;;
2021/01/09 13:14:34;;;;;;;7.72;1.75;;;6.40;99.90;;;;;;4864343;29;20030;-82
2021/01/09 13:17:11;;;;;;;8.70;1.60;;;6.50;99.90;;;;;;4857415;29;20137;-80
2021/01/09 13:19:40;;;;;;;3.80;1.80;;;6.50;99.90;;;;;;4836694;29;20033;-80
2021/01/09 13:24:55;;;;;;;5.30;1.70;;;6.50;99.90;;;;;;4854139;29;20041;-82
2021/01/09 13:27:51;;;;;;;;;;;;;;;;;;;;;
2021/01/09 13:30:22;;;;;;;11.88;2.10;;;6.50;99.90;;;;;;4864095;29;20538;-81
2021/01/09 13:33:29;;;;;;;;;;;;;;;;;;;;;
2021/01/09 13:36:52;;;;;;;;;;;;;;;;;;;;;
2021/01/09 13:39:34;;;;;;;;;;;;;;;;;;;;;
2021/01/09 13:42:31;;;;;;;;;;;;;;;;;;;;;
2021/01/09 13:48:34;;;;;;;;;;;;;;;;;;;;;
2021/01/09 13:54:29;;;;;;;4.32;1.20;;;6.70;99.90;;;;;;4834035;29;20045;-81
2021/01/09 14:00:33;;;;;;;;;;;;;;;;;;;;;
2021/01/09 14:07:14;;;;;;;;;;;;;;;;;;;;;
2021/01/09 14:09:29;;;;;;;5.63;1.80;;;6.80;99.90;;;;;;4859430;29;20037;-81
2021/01/09 14:11:58;;;;;;;4.05;0.88;;;6.80;99.90;;;;;;4849597;29;20398;-83
2021/01/09 14:14:36;;;;;;;6.22;1.13;;;6.80;99.90;;;;;;4869101;29;20026;-81
2021/01/09 14:17:28;;;;;;;5.25;1.73;;;6.70;99.90;;;;;;4854512;29;20064;-82
2021/01/09 14:20:56;;;;;;;2.65;0.80;;;6.70;99.90;;;;;;4871188;29;20128;-81
2021/01/09 14:23:49;;;;;;;4.30;1.20;;;6.60;99.90;;;;;;4871847;29;20033;-82
2021/01/09 14:30:08;;;;;;;;;;;;;;;;;;;;;
2021/01/09 14:33:01;;;;;;;8.93;0.70;;;6.60;99.90;;;;;;4809261;29;20467;-83
2021/01/09 14:35:51;;;;;;;5.72;0.80;;;6.60;99.90;;;;;;4810637;29;20436;-80
2021/01/09 14:38:29;;;;;;;;;;;;;;;;;;;;;
2021/01/09 14:41:20;;;;;;;10.02;1.10;;;6.80;99.90;;;;;;4807015;29;20043;-83
2021/01/09 14:44:18;;;;;;;;;;;;;;;;;;;;;
2021/01/09 14:47:03;;;;;;;3.45;0.73;;;7.00;99.90;;;;;;4809073;29;20043;-81
2021/01/09 14:50:01;;;;;;;;;;;;;;;;;;;;;
2021/01/09 14:52:35;;;;;;;5.95;1.58;;;7.30;99.90;;;;;;4817526;29;20103;-84
2021/01/09 14:58:56;;;;;;;5.78;1.27;;;7.30;99.90;;;;;;4804624;29;20050;-82
2021/01/09 15:01:41;;;;;;;;;;;;;;;;;;;;;
2021/01/09 15:04:15;;;;;;;6.97;0.90;;;7.00;99.90;;;;;;4806433;29;20035;-81
2021/01/09 15:06:49;;;;;;;6.72;1.73;;;6.80;99.90;;;;;;4825273;29;20066;-79
2021/01/09 15:09:17;;;;;;;6.82;1.13;;;6.90;99.90;;;;;;4860524;29;20074;-83
2021/01/09 15:11:46;;;;;;;4.18;0.90;;;6.90;99.90;;;;;;4837249;29;20037;-79
2021/01/09 15:14:13;;;;;;;8.63;1.02;;;7.00;99.90;;;;;;4844843;29;20030;-80
2021/01/09 15:16:47;;;;;;;11.27;1.08;;;7.10;99.90;;;;;;4854799;29;20037;-78
2021/01/09 15:19:17;;;;;;;9.50;1.85;;;7.00;99.90;;;;;;4846176;29;20022;-78
2021/01/09 15:21:47;;;;;;;1.25;0.70;;;6.90;99.90;;;;;;4851657;29;20308;-80